createdAt,value
2022-12-23T00:00:45.167Z,17.17
2022-12-23T00:03:12.734Z,17.23
2022-12-23T00:05:40.619Z,17.67
2022-12-23T00:08:08.882Z,19.02
2022-12-23T00:10:39.726Z,19.25
2022-12-23T00:13:26.523Z,18.42
2022-12-23T00:16:14.341Z,18.48
2022-12-23T00:18:42.336Z,18.77
2022-12-23T00:21:12.705Z,19.30
2022-12-23T00:23:43.183Z,19.25
2022-12-23T00:26:22.533Z,19.92
2022-12-23T00:28:50.225Z,20.80
2022-12-23T00:31:18.994Z,20.33
2022-12-23T00:33:48.311Z,21.83
2022-12-23T00:36:34.716Z,21.23
2022-12-23T00:39:23.517Z,23.55
2022-12-23T00:42:09.619Z,21.00
2022-12-23T00:44:37.044Z,22.10
2022-12-23T00:47:07.460Z,20.90
2022-12-23T00:49:44.573Z,20.13
2022-12-23T00:52:14.217Z,22.17
2022-12-23T00:54:42.452Z,17.58
2022-12-23T00:57:11.154Z,17.05
2022-12-23T00:59:38.615Z,14.85
2022-12-23T01:02:32.400Z,14.93
2022-12-23T01:05:19.416Z,14.32
2022-12-23T01:07:46.754Z,15.18
2022-12-23T01:10:14.116Z,14.52
2022-12-23T01:12:41.570Z,15.50
2022-12-23T01:15:10.555Z,15.70
2022-12-23T01:17:38.978Z,17.08
2022-12-23T01:20:07.369Z,17.38
2022-12-23T01:22:35.823Z,18.45
2022-12-23T01:25:04.620Z,19.75
2022-12-23T01:27:32.306Z,18.83
2022-12-23T01:30:03.094Z,18.60
2022-12-23T01:32:31.134Z,20.23
2022-12-23T01:34:59.793Z,19.58
2022-12-23T01:37:27.553Z,17.63
2022-12-23T01:39:55.523Z,18.60
2022-12-23T01:42:44.006Z,20.27
2022-12-23T01:45:19.115Z,20.65
2022-12-23T01:48:03.772Z,20.38
2022-12-23T01:50:45.501Z,20.65
2022-12-23T01:53:22.766Z,20.67
2022-12-23T01:56:06.808Z,22.35
2022-12-23T01:58:38.286Z,21.80
2022-12-23T02:01:26.281Z,23.77
2022-12-23T02:04:00.113Z,22.20
2022-12-23T02:06:58.597Z,23.75
2022-12-23T02:09:32.290Z,24.17
2022-12-23T02:12:37.135Z,23.95
2022-12-23T02:15:45.285Z,24.05
2022-12-23T02:18:28.688Z,23.80
2022-12-23T02:21:09.352Z,25.55
2022-12-23T02:24:16.702Z,24.35
2022-12-23T02:27:14.671Z,24.27
2022-12-23T02:29:54.465Z,23.67
2022-12-23T02:32:34.361Z,24.08
2022-12-23T02:35:18.215Z,26.60
2022-12-23T02:38:05.506Z,24.73
2022-12-23T02:40:44.827Z,25.00
2022-12-23T02:43:14.822Z,25.20
2022-12-23T02:46:07.813Z,25.83
2022-12-23T02:48:55.311Z,25.77
2022-12-23T02:51:38.196Z,25.58
2022-12-23T02:54:09.684Z,26.55
2022-12-23T02:56:39.994Z,25.13
2022-12-23T02:59:17.524Z,26.90
2022-12-23T03:01:46.078Z,25.85
2022-12-23T03:04:14.423Z,27.08
2022-12-23T03:06:48.208Z,27.75
2022-12-23T03:09:27.929Z,26.95
2022-12-23T03:12:07.660Z,27.00
2022-12-23T03:14:50.452Z,25.70
2022-12-23T03:17:48.833Z,27.33
2022-12-23T03:20:30.577Z,28.15
2022-12-23T03:23:26.759Z,27.30
2022-12-23T03:26:02.508Z,25.20
2022-12-23T03:28:51.538Z,26.30
2022-12-23T03:31:27.224Z,26.20
2022-12-23T03:34:04.253Z,25.95
2022-12-23T03:36:58.312Z,25.48
2022-12-23T03:39:31.316Z,25.98
2022-12-23T03:42:35.834Z,28.30
2022-12-23T03:48:19.032Z,29.23
2022-12-23T03:50:47.893Z,28.10
2022-12-23T03:53:28.942Z,27.42
2022-12-23T03:56:01.737Z,27.80
2022-12-23T03:58:38.188Z,28.27
2022-12-23T04:01:17.642Z,28.27
2022-12-23T04:03:54.897Z,26.48
2022-12-23T04:06:22.564Z,27.77
2022-12-23T04:08:50.732Z,27.73
2022-12-23T04:11:18.063Z,27.65
2022-12-23T04:13:48.554Z,28.23
2022-12-23T04:16:17.050Z,30.20
2022-12-23T04:18:46.925Z,28.08
2022-12-23T04:21:14.219Z,29.45
2022-12-23T04:23:41.600Z,28.33
2022-12-23T04:26:08.927Z,29.50
2022-12-23T04:28:36.275Z,30.83
2022-12-23T04:31:03.747Z,28.92
2022-12-23T04:33:31.603Z,31.27
2022-12-23T04:36:03.306Z,31.92
2022-12-23T04:38:30.745Z,29.23
2022-12-23T04:40:58.018Z,28.45
2022-12-23T04:43:25.770Z,28.35
2022-12-23T04:45:53.253Z,27.77
2022-12-23T04:48:20.605Z,27.17
2022-12-23T04:50:47.998Z,26.60
2022-12-23T04:53:15.647Z,25.20
2022-12-23T04:55:43.095Z,23.33
2022-12-23T04:58:10.493Z,20.85
2022-12-23T05:00:40.026Z,21.08
2022-12-23T05:03:08.856Z,21.02
2022-12-23T05:05:37.010Z,21.02
2022-12-23T05:08:05.736Z,21.08
2022-12-23T05:10:33.379Z,22.58
2022-12-23T05:13:00.992Z,22.55
2022-12-23T05:15:28.712Z,23.45
2022-12-23T05:17:56.496Z,25.25
2022-12-23T05:20:24.373Z,25.30
2022-12-23T05:22:51.670Z,27.58
2022-12-23T05:25:18.966Z,25.17
2022-12-23T05:27:46.292Z,28.48
2022-12-23T05:30:13.605Z,29.70
2022-12-23T05:32:40.896Z,27.60
2022-12-23T05:35:08.536Z,28.33
2022-12-23T05:37:35.973Z,31.92
2022-12-23T05:40:03.424Z,30.60
2022-12-23T05:42:30.850Z,29.90
2022-12-23T05:44:58.175Z,28.95
2022-12-23T05:47:25.417Z,27.23
2022-12-23T05:49:52.777Z,28.73
2022-12-23T05:52:20.068Z,28.30
2022-12-23T05:54:47.365Z,29.25
2022-12-23T05:57:14.635Z,30.95
2022-12-23T05:59:41.928Z,31.15
2022-12-23T06:02:09.540Z,29.48
2022-12-23T06:04:36.972Z,30.85
2022-12-23T06:07:04.371Z,30.92
2022-12-23T06:09:32.812Z,30.52
2022-12-23T06:12:00.205Z,32.17
2022-12-23T06:14:29.416Z,30.67
2022-12-23T06:17:00.096Z,33.45
2022-12-23T06:19:27.567Z,33.30
2022-12-23T06:21:54.815Z,35.17
2022-12-23T06:24:22.211Z,35.45
2022-12-23T06:26:54.939Z,35.63
2022-12-23T06:29:24.493Z,35.80
2022-12-23T06:31:51.916Z,34.63
2022-12-23T06:34:19.288Z,35.53
2022-12-23T06:36:46.668Z,36.58
2022-12-23T06:39:14.295Z,34.30
2022-12-23T06:41:41.633Z,32.38
2022-12-23T06:44:10.524Z,30.67
2022-12-23T06:46:37.895Z,31.98
2022-12-23T06:49:12.578Z,32.20
2022-12-23T06:51:40.645Z,30.27
2022-12-23T06:54:09.673Z,29.95
2022-12-23T06:56:36.987Z,29.75
2022-12-23T06:59:04.368Z,30.98
2022-12-23T07:01:31.847Z,30.48
2022-12-23T07:03:59.261Z,29.20
2022-12-23T07:06:26.658Z,27.85
2022-12-23T07:08:54.055Z,28.33
2022-12-23T07:11:21.391Z,28.25
2022-12-23T07:13:49.055Z,27.55
2022-12-23T07:16:16.502Z,26.95
2022-12-23T07:18:44.004Z,25.27
2022-12-23T07:21:21.308Z,25.50
2022-12-23T07:23:52.102Z,24.58
2022-12-23T07:26:19.397Z,22.80
2022-12-23T07:28:48.479Z,23.85
2022-12-23T07:31:16.387Z,23.75
2022-12-23T07:33:43.905Z,23.85
2022-12-23T07:36:11.444Z,24.63
2022-12-23T07:38:38.830Z,24.52
2022-12-23T07:41:06.415Z,25.35
2022-12-23T07:43:33.746Z,25.45
2022-12-23T07:46:07.831Z,25.10
2022-12-23T07:48:35.465Z,25.80
2022-12-23T07:51:05.937Z,22.77
2022-12-23T07:53:33.483Z,23.20
2022-12-23T07:56:00.844Z,23.65
2022-12-23T07:58:28.281Z,26.17
2022-12-23T08:01:03.531Z,25.98
2022-12-23T08:03:31.126Z,28.27
2022-12-23T08:06:07.381Z,33.33
2022-12-23T08:08:35.596Z,36.63
2022-12-23T08:11:08.711Z,36.92
2022-12-23T08:13:37.948Z,39.85
2022-12-23T08:16:06.435Z,42.90
2022-12-23T08:18:35.797Z,46.00
2022-12-23T08:21:08.578Z,44.40
2022-12-23T08:23:36.070Z,43.83
2022-12-23T08:26:13.627Z,44.97
2022-12-23T08:28:41.836Z,45.80
2022-12-23T08:31:10.178Z,48.88
2022-12-23T08:33:38.708Z,44.08
2022-12-23T08:36:07.933Z,47.63
2022-12-23T08:38:36.182Z,46.53
2022-12-23T08:41:08.598Z,46.63
2022-12-23T08:43:36.414Z,46.00
2022-12-23T08:46:04.080Z,45.03
2022-12-23T08:48:32.534Z,44.53
2022-12-23T08:51:05.087Z,44.22
2022-12-23T08:53:33.976Z,45.15
2022-12-23T08:56:12.493Z,44.80
2022-12-23T08:58:41.822Z,44.63
2022-12-23T09:01:10.534Z,43.28
2022-12-23T09:03:38.648Z,43.85
2022-12-23T09:06:14.468Z,44.08
2022-12-23T09:08:41.987Z,46.03
2022-12-23T09:11:14.555Z,46.95
2022-12-23T09:13:41.980Z,43.72
2022-12-23T09:16:09.439Z,46.42
2022-12-23T09:18:37.477Z,45.47
2022-12-23T09:21:07.531Z,45.90
2022-12-23T09:23:35.614Z,45.15
2022-12-23T09:26:05.000Z,45.17
2022-12-23T09:28:32.406Z,45.83
2022-12-23T09:31:06.227Z,44.83
2022-12-23T09:33:33.600Z,45.67
2022-12-23T09:36:01.640Z,45.25
2022-12-23T09:38:28.956Z,46.78
2022-12-23T09:41:24.776Z,49.97
2022-12-23T09:44:04.466Z,51.22
2022-12-23T09:46:35.044Z,50.30
2022-12-23T09:49:03.546Z,50.08
2022-12-23T09:51:31.677Z,52.67
2022-12-23T09:54:25.395Z,47.40
2022-12-23T09:57:02.545Z,47.90
2022-12-23T09:59:36.792Z,52.25
2022-12-23T10:02:23.693Z,53.05
2022-12-23T10:05:12.457Z,51.38
2022-12-23T10:07:48.507Z,54.65
2022-12-23T10:10:33.685Z,53.63
2022-12-23T10:13:03.563Z,52.03
2022-12-23T10:15:33.299Z,53.67
2022-12-23T10:18:05.302Z,53.33
2022-12-23T10:20:43.922Z,54.30
2022-12-23T10:23:17.260Z,53.22
2022-12-23T10:25:51.647Z,53.45
2022-12-23T10:28:19.291Z,49.47
2022-12-23T10:31:23.762Z,48.83
2022-12-23T10:33:52.252Z,52.00
2022-12-23T10:36:58.679Z,51.55
2022-12-23T10:40:07.541Z,54.30
2022-12-23T10:42:43.162Z,55.53
2022-12-23T10:45:22.543Z,55.75
2022-12-23T10:48:15.503Z,54.63
2022-12-23T10:50:54.997Z,53.65
2022-12-23T10:53:59.705Z,53.25
2022-12-23T10:56:28.344Z,53.30
2022-12-23T10:58:58.620Z,52.95
2022-12-23T11:01:27.751Z,52.63
2022-12-23T11:04:08.036Z,49.08
2022-12-23T11:06:39.721Z,45.70
2022-12-23T11:09:10.988Z,46.75
2022-12-23T11:11:59.938Z,44.03
2022-12-23T11:14:39.472Z,46.17
2022-12-23T11:17:20.131Z,43.63
2022-12-23T11:19:47.491Z,42.97
2022-12-23T11:22:24.447Z,50.42
2022-12-23T11:24:52.048Z,45.42
2022-12-23T11:27:20.500Z,38.25
2022-12-23T11:29:53.879Z,40.85
2022-12-23T11:32:27.152Z,35.17
2022-12-23T11:34:55.043Z,41.00
2022-12-23T11:37:42.600Z,36.33
2022-12-23T11:40:38.889Z,36.75
2022-12-23T11:46:14.109Z,37.83
2022-12-23T11:48:41.528Z,37.75
2022-12-23T11:51:08.920Z,38.17
2022-12-23T11:53:36.714Z,35.95
2022-12-23T11:56:09.665Z,34.25
2022-12-23T11:58:48.157Z,33.85
2022-12-23T12:01:18.655Z,33.60
2022-12-23T12:04:09.363Z,34.92
2022-12-23T12:06:41.877Z,32.28
2022-12-23T12:09:12.985Z,31.60
2022-12-23T12:12:05.976Z,33.58
2022-12-23T12:14:36.308Z,33.53
2022-12-23T12:17:11.500Z,36.05
2022-12-23T12:19:50.734Z,36.03
2022-12-23T12:22:36.469Z,35.80
2022-12-23T12:25:18.079Z,38.60
2022-12-23T12:27:56.532Z,37.38
2022-12-23T12:30:25.456Z,37.05
2022-12-23T12:33:00.993Z,39.15
2022-12-23T12:35:41.461Z,39.85
2022-12-23T12:38:29.605Z,37.20
2022-12-23T12:41:24.168Z,38.30
2022-12-23T12:44:41.820Z,38.35
2022-12-23T12:47:53.461Z,35.22
2022-12-23T12:50:29.629Z,34.47
2022-12-23T12:53:03.301Z,35.15
2022-12-23T12:55:33.706Z,34.70
2022-12-23T12:58:02.819Z,33.88
2022-12-23T13:00:41.870Z,32.58
2022-12-23T13:03:35.811Z,34.55
2022-12-23T13:06:23.213Z,31.90
2022-12-23T13:08:56.691Z,31.80
2022-12-23T13:11:51.677Z,33.72
2022-12-23T13:14:38.580Z,34.63
2022-12-23T13:17:39.996Z,33.35
2022-12-23T13:20:35.299Z,25.98
2022-12-23T13:23:42.216Z,27.23
2022-12-23T13:26:14.815Z,28.17
2022-12-23T13:29:11.514Z,28.45
2022-12-23T13:31:47.501Z,29.35
2022-12-23T13:34:39.615Z,28.08
2022-12-23T13:37:35.214Z,29.42
2022-12-23T13:40:14.576Z,27.70
2022-12-23T13:42:49.139Z,29.42
2022-12-23T13:45:18.363Z,29.40
2022-12-23T13:48:05.271Z,30.15
2022-12-23T13:50:43.396Z,28.77
2022-12-23T13:53:47.803Z,28.98
2022-12-23T13:56:56.011Z,29.88
2022-12-23T13:59:25.706Z,29.02
2022-12-23T14:01:53.188Z,29.92
2022-12-23T14:04:37.849Z,31.98
2022-12-23T14:07:19.031Z,31.17
2022-12-23T14:10:00.568Z,32.15
2022-12-23T14:12:31.279Z,31.15
2022-12-23T14:15:20.677Z,30.17
2022-12-23T14:18:15.965Z,31.45
2022-12-23T14:23:32.513Z,30.35
2022-12-23T14:26:18.187Z,28.25
2022-12-23T14:28:57.457Z,28.77
2022-12-23T14:31:43.987Z,29.58
2022-12-23T14:34:20.363Z,30.20
2022-12-23T14:37:16.351Z,26.52
2022-12-23T14:39:44.296Z,27.40
2022-12-23T14:42:16.518Z,30.35
2022-12-23T14:44:47.046Z,26.75
2022-12-23T14:47:35.968Z,26.95
2022-12-23T14:50:33.084Z,27.27
2022-12-23T14:53:19.834Z,24.90
2022-12-23T14:55:48.219Z,22.80
2022-12-23T14:58:20.085Z,23.40
2022-12-23T15:01:24.697Z,22.73
2022-12-23T15:03:59.218Z,23.17
2022-12-23T15:06:55.687Z,23.73
2022-12-23T15:09:32.192Z,24.27
2022-12-23T15:12:01.702Z,23.80
2022-12-23T15:14:36.578Z,24.42
2022-12-23T15:17:24.138Z,25.85
2022-12-23T15:19:51.616Z,24.52
2022-12-23T15:22:28.264Z,24.73
2022-12-23T15:24:59.370Z,25.23
2022-12-23T15:27:29.370Z,24.90
2022-12-23T15:29:57.995Z,25.23
2022-12-23T15:32:25.950Z,26.25
2022-12-23T15:34:55.548Z,25.95
2022-12-23T15:37:31.371Z,24.98
2022-12-23T15:40:06.516Z,23.70
2022-12-23T15:42:38.534Z,27.45
2022-12-23T15:45:30.975Z,25.55
2022-12-23T15:47:58.450Z,22.58
2022-12-23T15:50:26.067Z,23.83
2022-12-23T15:52:55.118Z,23.25
2022-12-23T15:55:31.520Z,23.08
2022-12-23T15:58:00.623Z,23.25
2022-12-23T16:00:38.245Z,24.90
2022-12-23T16:03:10.420Z,24.10
2022-12-23T16:05:42.071Z,23.33
2022-12-23T16:08:23.033Z,26.10
2022-12-23T16:11:15.816Z,24.25
2022-12-23T16:13:59.155Z,22.08
2022-12-23T16:16:40.773Z,21.40
2022-12-23T16:19:46.936Z,17.85
2022-12-23T16:22:28.748Z,15.88
2022-12-23T16:25:06.532Z,14.55
2022-12-23T16:27:38.051Z,13.95
2022-12-23T16:30:15.748Z,13.55
2022-12-23T16:32:54.775Z,13.32
2022-12-23T16:35:29.221Z,13.02
2022-12-23T16:38:16.334Z,12.27
2022-12-23T16:40:45.461Z,12.98
2022-12-23T16:43:13.383Z,11.25
2022-12-23T16:45:41.879Z,13.00
2022-12-23T16:48:26.858Z,13.57
2022-12-23T16:50:54.842Z,12.65
2022-12-23T16:53:22.229Z,13.38
2022-12-23T16:55:55.074Z,13.45
2022-12-23T16:58:24.194Z,12.52
2022-12-23T17:00:52.029Z,13.68
2022-12-23T17:03:20.851Z,14.40
2022-12-23T17:05:48.378Z,13.93
2022-12-23T17:08:23.132Z,13.70
2022-12-23T17:13:29.948Z,12.75
2022-12-23T17:18:39.476Z,13.50
2022-12-23T17:21:08.754Z,13.70
2022-12-23T17:26:18.663Z,14.35
2022-12-23T17:28:46.209Z,14.15
2022-12-23T17:31:15.525Z,14.80
2022-12-23T17:33:45.433Z,16.70
2022-12-23T17:36:18.805Z,14.80
2022-12-23T17:38:46.139Z,13.77
2022-12-23T17:41:31.533Z,14.13
2022-12-23T17:43:59.587Z,12.45
2022-12-23T17:46:27.278Z,12.55
2022-12-23T17:48:54.703Z,13.73
2022-12-23T17:51:24.599Z,15.02
2022-12-23T17:53:57.844Z,12.32
2022-12-23T17:56:27.875Z,13.07
2022-12-23T17:58:55.327Z,13.57
2022-12-23T18:01:26.001Z,12.40
2022-12-23T18:03:53.963Z,12.63
2022-12-23T18:06:22.780Z,13.57
2022-12-23T18:08:50.865Z,13.82
2022-12-23T18:11:21.082Z,12.38
2022-12-23T18:13:49.679Z,11.93
2022-12-23T18:16:17.054Z,12.60
2022-12-23T18:18:46.961Z,13.25
2022-12-23T18:21:26.113Z,12.93
2022-12-23T18:23:55.488Z,12.85
2022-12-23T18:26:22.867Z,12.07
2022-12-23T18:28:52.636Z,13.88
2022-12-23T18:31:22.445Z,12.65
2022-12-23T18:33:49.949Z,12.98
2022-12-23T18:36:32.460Z,13.05
2022-12-23T18:39:00.239Z,12.40
2022-12-23T18:41:28.159Z,13.15
2022-12-23T18:43:55.801Z,11.98
2022-12-23T18:46:23.517Z,12.93
2022-12-23T18:48:51.710Z,12.75
2022-12-23T18:51:21.610Z,12.43
2022-12-23T18:53:49.216Z,12.75
2022-12-23T18:56:20.172Z,12.50
2022-12-23T18:58:47.540Z,13.10
2022-12-23T19:01:16.474Z,12.57
2022-12-23T19:03:45.595Z,12.40
2022-12-23T19:06:16.265Z,12.90
2022-12-23T19:08:44.558Z,13.85
2022-12-23T19:11:13.788Z,12.68
2022-12-23T19:13:41.566Z,11.65
2022-12-23T19:16:13.316Z,12.48
2022-12-23T19:18:41.039Z,11.82
2022-12-23T19:21:09.380Z,11.50
2022-12-23T19:23:37.254Z,11.93
2022-12-23T19:26:06.265Z,11.55
2022-12-23T19:28:34.415Z,11.23
2022-12-23T19:31:06.262Z,10.85
2022-12-23T19:33:35.717Z,10.55
2022-12-23T19:36:10.308Z,10.20
2022-12-23T19:38:37.974Z,10.45
2022-12-23T19:41:07.265Z,10.48
2022-12-23T19:43:35.905Z,10.15
2022-12-23T19:46:06.149Z,12.77
2022-12-23T19:48:33.745Z,11.23
2022-12-23T19:51:12.630Z,11.57
2022-12-23T19:53:41.135Z,11.88
2022-12-23T19:56:15.934Z,12.85
2022-12-23T19:58:44.939Z,12.57
2022-12-23T20:01:17.119Z,11.18
2022-12-23T20:03:46.024Z,10.98
2022-12-23T20:06:19.964Z,12.00
2022-12-23T20:08:48.936Z,12.32
2022-12-23T20:11:25.080Z,11.07
2022-12-23T20:13:55.975Z,11.00
2022-12-23T20:16:24.186Z,11.57
2022-12-23T20:18:51.639Z,11.00
2022-12-23T20:21:19.447Z,11.20
2022-12-23T20:23:46.773Z,11.65
2022-12-23T20:26:16.052Z,11.27
2022-12-23T20:28:43.457Z,11.65
2022-12-23T20:31:18.936Z,10.40
2022-12-23T20:33:46.869Z,10.40
2022-12-23T20:36:15.675Z,10.57
2022-12-23T20:38:44.619Z,10.73
2022-12-23T20:41:17.160Z,10.57
2022-12-23T20:43:56.982Z,9.27
2022-12-23T20:46:32.005Z,10.98
2022-12-23T20:48:59.649Z,9.70
2022-12-23T20:51:27.155Z,10.10
2022-12-23T20:53:59.658Z,9.55
2022-12-23T20:56:27.792Z,9.55
2022-12-23T20:58:55.846Z,8.82
2022-12-23T21:01:24.620Z,9.27
2022-12-23T21:03:52.169Z,11.45
2022-12-23T21:06:20.573Z,10.00
2022-12-23T21:08:48.286Z,10.30
2022-12-23T21:11:16.308Z,10.80
2022-12-23T21:13:46.266Z,10.00
2022-12-23T21:16:13.913Z,10.43
2022-12-23T21:18:44.026Z,10.77
2022-12-23T21:21:12.442Z,10.00
2022-12-23T21:23:43.715Z,9.60
2022-12-23T21:26:17.934Z,11.00
2022-12-23T21:28:46.385Z,10.00
2022-12-23T21:31:16.043Z,10.95
2022-12-23T21:33:44.754Z,10.00
2022-12-23T21:36:19.719Z,9.93
2022-12-23T21:38:48.440Z,9.23
2022-12-23T21:41:18.482Z,9.20
2022-12-23T21:43:46.160Z,10.98
2022-12-23T21:46:15.621Z,9.23
2022-12-23T21:48:43.193Z,9.90
2022-12-23T21:51:25.032Z,10.05
2022-12-23T21:53:55.652Z,10.52
2022-12-23T21:56:28.237Z,10.13
2022-12-23T21:59:00.944Z,10.95
2022-12-23T22:01:28.943Z,9.63
2022-12-23T22:03:57.627Z,9.88
2022-12-23T22:06:30.255Z,9.43
2022-12-23T22:08:58.020Z,8.77
2022-12-23T22:11:27.706Z,9.23
2022-12-23T22:13:56.860Z,10.27
2022-12-23T22:16:25.666Z,8.00
2022-12-23T22:18:54.417Z,9.38
2022-12-23T22:21:26.448Z,9.52
2022-12-23T22:23:55.148Z,9.20
2022-12-23T22:26:26.283Z,9.30
2022-12-23T22:28:56.389Z,8.75
2022-12-23T22:31:28.410Z,9.18
2022-12-23T22:33:55.743Z,9.07
2022-12-23T22:36:23.142Z,8.75
2022-12-23T22:38:55.643Z,8.43
2022-12-23T22:41:23.691Z,9.35
2022-12-23T22:43:51.859Z,8.50
2022-12-23T22:46:19.897Z,9.60
2022-12-23T22:48:47.391Z,9.23
2022-12-23T22:51:19.806Z,10.02
2022-12-23T22:53:48.024Z,9.07
2022-12-23T22:56:16.597Z,9.82
2022-12-23T22:58:43.862Z,11.20
2022-12-23T23:01:22.389Z,11.00
2022-12-23T23:03:56.661Z,9.73
2022-12-23T23:06:29.135Z,10.63
2022-12-23T23:08:57.248Z,10.68
2022-12-23T23:11:25.849Z,9.10
2022-12-23T23:13:53.713Z,9.20
2022-12-23T23:16:21.588Z,10.57
2022-12-23T23:18:49.418Z,9.25
2022-12-23T23:21:17.116Z,10.13
2022-12-23T23:23:44.594Z,9.68
2022-12-23T23:26:12.173Z,9.27
2022-12-23T23:28:40.020Z,10.23
2022-12-23T23:33:55.713Z,9.45
2022-12-23T23:36:23.101Z,10.50
2022-12-23T23:38:50.424Z,9.65
2022-12-23T23:41:22.951Z,9.20
2022-12-23T23:43:51.225Z,9.50
2022-12-23T23:46:18.910Z,9.70
2022-12-23T23:48:46.279Z,9.98
2022-12-23T23:51:13.610Z,9.90
2022-12-23T23:53:40.987Z,9.93
2022-12-23T23:56:09.148Z,10.23
2022-12-23T23:58:37.456Z,9.90
